Terminal Aerodrome Forecast
Issued by NWS Brownsville, TX

Home | Current Version | Previous Version | Text Only | Print | Product List | Glossary On
Versions: 1 2 3 4 5 6 7 8 9 10 11 12 13 14 15 16 17 18 19 20 21
102
FTUS44 KBRO 091730
TAFHRL
TAF
KHRL 091730Z 0918/1018 34015G22KT P6SM OVC025
      TEMPO 0918/0922 SCT025 OVC035
     FM092200 34012KT P6SM OVC012
     FM100000 34009KT P6SM OVC012
      TEMPO 1003/1006 OVC008
     FM100600 33009KT P6SM OVC015=

USA.gov is the U.S. government's official web portal to all federal, state and local government web resources and services.